createdAt,value
2023-05-22T00:00:07.635Z,90.90
2023-05-22T00:02:43.197Z,91.00
2023-05-22T00:05:13.324Z,91.00
2023-05-22T00:07:43.830Z,91.00
2023-05-22T00:10:14.718Z,91.00
2023-05-22T00:12:43.522Z,91.00
2023-05-22T00:15:13.414Z,91.10
2023-05-22T00:17:42.481Z,91.00
2023-05-22T00:20:12.320Z,91.00
2023-05-22T00:22:41.169Z,91.10
2023-05-22T00:25:11.415Z,91.10
2023-05-22T00:27:41.474Z,91.10
2023-05-22T00:30:11.407Z,91.10
2023-05-22T00:32:40.701Z,91.10
2023-05-22T00:35:10.923Z,91.10
2023-05-22T00:37:39.856Z,91.10
2023-05-22T00:40:09.917Z,91.10
2023-05-22T00:42:38.306Z,91.00
2023-05-22T00:45:11.251Z,91.00
2023-05-22T00:47:39.734Z,91.00
2023-05-22T00:50:11.268Z,91.00
2023-05-22T00:52:42.641Z,91.00
2023-05-22T00:55:13.706Z,91.10
2023-05-22T00:57:43.171Z,91.10
2023-05-22T01:00:16.933Z,91.10
2023-05-22T01:02:45.944Z,91.00
2023-05-22T01:05:18.407Z,90.90
2023-05-22T01:07:47.367Z,90.80
2023-05-22T01:10:15.819Z,90.80
2023-05-22T01:12:51.013Z,90.70
2023-05-22T01:15:27.947Z,90.70
2023-05-22T01:18:05.802Z,90.70
2023-05-22T01:20:40.721Z,90.60
2023-05-22T01:23:30.549Z,90.60
2023-05-22T01:26:19.288Z,90.60
2023-05-22T01:29:11.967Z,90.50
2023-05-22T01:31:45.235Z,90.50
2023-05-22T01:34:15.747Z,90.50
2023-05-22T01:36:48.036Z,90.50
2023-05-22T01:39:17.367Z,90.50
2023-05-22T01:41:46.870Z,90.50
2023-05-22T01:44:16.169Z,90.90
2023-05-22T01:46:46.268Z,90.60
2023-05-22T01:49:14.828Z,90.60
2023-05-22T01:51:53.905Z,90.50
2023-05-22T01:54:32.099Z,90.50
2023-05-22T01:57:07.183Z,90.50
2023-05-22T01:59:54.638Z,90.50
2023-05-22T02:02:27.857Z,90.50
2023-05-22T02:05:01.397Z,90.40
2023-05-22T02:07:30.954Z,90.40
2023-05-22T02:10:01.618Z,90.40
2023-05-22T02:12:30.418Z,90.40
2023-05-22T02:14:59.350Z,90.40
2023-05-22T02:17:30.091Z,90.50
2023-05-22T02:19:58.981Z,90.60
2023-05-22T02:22:27.813Z,90.60
2023-05-22T02:24:56.299Z,90.70
2023-05-22T02:27:25.105Z,90.70
2023-05-22T02:29:53.584Z,90.60
2023-05-22T02:32:22.294Z,90.60
2023-05-22T02:34:54.645Z,90.60
2023-05-22T02:37:23.526Z,90.50
2023-05-22T02:39:52.171Z,90.50
2023-05-22T02:42:20.556Z,90.50
2023-05-22T02:44:49.177Z,90.50
2023-05-22T02:47:17.896Z,90.50
2023-05-22T02:49:47.262Z,90.50
2023-05-22T02:52:17.299Z,90.60
2023-05-22T02:54:46.203Z,90.50
2023-05-22T02:57:14.879Z,90.50
2023-05-22T02:59:44.985Z,90.40
2023-05-22T03:02:15.093Z,90.40
2023-05-22T03:04:44.002Z,90.40
2023-05-22T03:07:12.451Z,90.50
2023-05-22T03:09:42.447Z,90.50
2023-05-22T03:12:11.769Z,90.50
2023-05-22T03:14:40.425Z,90.50
2023-05-22T03:17:08.835Z,90.50
2023-05-22T03:19:37.381Z,90.50
2023-05-22T03:22:06.701Z,90.60
2023-05-22T03:24:35.932Z,90.50
2023-05-22T03:27:06.238Z,90.50
2023-05-22T03:29:35.002Z,90.50
2023-05-22T03:32:04.742Z,90.50
2023-05-22T03:34:33.316Z,90.50
2023-05-22T03:37:01.904Z,90.40
2023-05-22T03:39:30.881Z,90.50
2023-05-22T03:41:59.508Z,90.40
2023-05-22T03:44:29.905Z,90.40
2023-05-22T03:46:58.559Z,90.40
2023-05-22T03:49:27.119Z,90.50
2023-05-22T03:51:55.542Z,90.60
2023-05-22T03:54:23.949Z,90.50
2023-05-22T03:56:52.971Z,90.50
2023-05-22T03:59:21.890Z,90.50
2023-05-22T04:01:52.176Z,90.60
2023-05-22T04:04:20.550Z,90.60
2023-05-22T04:06:49.762Z,90.50
2023-05-22T04:09:18.620Z,90.50
2023-05-22T04:11:48.844Z,90.50
2023-05-22T04:14:17.240Z,90.40
2023-05-22T04:16:45.793Z,90.40
2023-05-22T04:19:15.681Z,90.40
2023-05-22T04:21:44.274Z,90.70
2023-05-22T04:24:13.059Z,90.70
2023-05-22T04:26:42.652Z,90.70
2023-05-22T04:29:14.818Z,90.60
2023-05-22T04:31:43.576Z,90.60
2023-05-22T04:34:13.259Z,90.50
2023-05-22T04:36:45.395Z,90.50
2023-05-22T04:39:14.981Z,90.50
2023-05-22T04:41:43.705Z,90.40
2023-05-22T04:44:12.217Z,90.40
2023-05-22T04:46:40.966Z,90.40
2023-05-22T04:49:09.351Z,90.30
2023-05-22T04:51:38.055Z,90.30
2023-05-22T04:54:08.041Z,90.40
2023-05-22T04:56:37.378Z,90.10
2023-05-22T04:59:09.457Z,89.30
2023-05-22T05:01:38.465Z,88.60
2023-05-22T05:04:07.083Z,88.40
2023-05-22T05:06:35.995Z,87.00
2023-05-22T05:09:04.580Z,86.70
2023-05-22T05:11:34.430Z,86.90
2023-05-22T05:14:03.252Z,87.00
2023-05-22T05:16:31.875Z,85.20
2023-05-22T05:19:00.507Z,85.20
2023-05-22T05:21:29.297Z,84.10
2023-05-22T05:23:58.334Z,84.20
2023-05-22T05:26:27.443Z,84.10
2023-05-22T05:28:57.859Z,83.50
2023-05-22T05:31:26.776Z,83.00
2023-05-22T05:33:58.478Z,83.30
2023-05-22T05:36:27.334Z,82.70
2023-05-22T05:38:56.941Z,83.30
2023-05-22T05:41:25.436Z,82.90
2023-05-22T05:43:54.197Z,82.30
2023-05-22T05:46:25.415Z,82.20
2023-05-22T05:48:54.323Z,82.20
2023-05-22T05:51:22.993Z,82.10
2023-05-22T05:53:52.028Z,82.30
2023-05-22T05:56:21.363Z,78.80
2023-05-22T05:58:49.689Z,78.10
2023-05-22T06:01:18.632Z,77.10
2023-05-22T06:03:48.494Z,77.20
2023-05-22T06:06:17.560Z,77.70
2023-05-22T06:08:45.905Z,77.10
2023-05-22T06:11:14.300Z,75.80
2023-05-22T06:13:42.657Z,75.70
2023-05-22T06:16:11.014Z,76.20
2023-05-22T06:18:39.332Z,74.90
2023-05-22T06:21:09.236Z,75.50
2023-05-22T06:23:37.672Z,75.00
2023-05-22T06:26:06.341Z,74.30
2023-05-22T06:28:34.777Z,75.10
2023-05-22T06:31:03.421Z,75.00
2023-05-22T06:33:32.530Z,74.30
2023-05-22T06:36:01.411Z,73.70
2023-05-22T06:38:31.686Z,73.00
2023-05-22T06:41:00.565Z,72.40
2023-05-22T06:43:28.884Z,72.70
2023-05-22T06:45:57.238Z,72.20
2023-05-22T06:48:25.720Z,72.50
2023-05-22T06:50:54.063Z,69.50
2023-05-22T06:53:23.977Z,69.80
2023-05-22T06:55:53.806Z,69.70
2023-05-22T06:58:22.213Z,69.40
2023-05-22T07:00:50.904Z,69.00
2023-05-22T07:03:19.374Z,68.40
2023-05-22T07:05:47.829Z,69.30
2023-05-22T07:08:16.261Z,68.80
2023-05-22T07:10:44.548Z,68.20
2023-05-22T07:13:14.449Z,69.40
2023-05-22T07:15:43.645Z,69.20
2023-05-22T07:18:12.978Z,68.60
2023-05-22T07:20:41.730Z,68.90
2023-05-22T07:23:10.361Z,69.60
2023-05-22T07:25:38.628Z,69.80
2023-05-22T07:28:09.280Z,70.30
2023-05-22T07:30:39.985Z,69.30
2023-05-22T07:33:08.687Z,69.40
2023-05-22T07:35:37.093Z,68.40
2023-05-22T07:38:05.408Z,68.50
2023-05-22T07:40:33.741Z,68.00
2023-05-22T07:43:02.183Z,69.00
2023-05-22T07:45:30.537Z,69.00
2023-05-22T07:48:02.051Z,69.60
2023-05-22T07:50:33.192Z,68.00
2023-05-22T07:53:02.072Z,68.20
2023-05-22T07:55:30.396Z,67.70
2023-05-22T07:57:58.745Z,67.60
2023-05-22T08:00:27.378Z,67.70
2023-05-22T08:02:55.878Z,68.10
2023-05-22T08:05:25.959Z,68.00
2023-05-22T08:07:54.332Z,67.70
2023-05-22T08:10:22.717Z,66.90
2023-05-22T08:12:51.031Z,67.10
2023-05-22T08:15:19.485Z,67.50
2023-05-22T08:17:47.789Z,67.40
2023-05-22T08:20:16.284Z,67.70
2023-05-22T08:22:46.295Z,68.30
2023-05-22T08:25:14.675Z,68.60
2023-05-22T08:27:43.221Z,68.70
2023-05-22T08:30:12.116Z,69.00
2023-05-22T08:32:40.849Z,69.30
2023-05-22T08:35:09.781Z,69.20
2023-05-22T08:37:38.328Z,68.80
2023-05-22T08:40:13.153Z,68.00
2023-05-22T08:42:42.139Z,68.00
2023-05-22T08:45:11.408Z,68.00
2023-05-22T08:47:41.978Z,67.60
2023-05-22T08:50:11.866Z,67.70
2023-05-22T08:52:50.703Z,67.30
2023-05-22T08:55:20.902Z,67.90
2023-05-22T08:57:50.712Z,67.80
2023-05-22T09:00:20.904Z,67.70
2023-05-22T09:02:50.334Z,67.90
2023-05-22T09:05:18.845Z,68.40
2023-05-22T09:07:48.966Z,65.50
2023-05-22T09:10:17.411Z,65.50
2023-05-22T09:13:05.443Z,66.30
2023-05-22T09:15:33.876Z,66.30
2023-05-22T09:18:02.383Z,66.20
2023-05-22T09:20:35.226Z,64.30
2023-05-22T09:23:04.069Z,64.10
2023-05-22T09:25:33.051Z,64.20
2023-05-22T09:28:01.488Z,64.50
2023-05-22T09:30:35.223Z,64.20
2023-05-22T09:33:03.846Z,64.70
2023-05-22T09:35:33.637Z,65.20
2023-05-22T09:38:02.203Z,65.30
2023-05-22T09:40:32.086Z,65.60
2023-05-22T09:43:00.775Z,65.90
2023-05-22T09:45:30.827Z,66.00
2023-05-22T09:47:59.242Z,65.50
2023-05-22T09:50:27.581Z,65.80
2023-05-22T09:52:56.259Z,65.50
2023-05-22T09:55:25.157Z,65.50
2023-05-22T09:57:55.387Z,64.80
2023-05-22T10:00:24.857Z,63.10
2023-05-22T10:03:03.384Z,63.80
2023-05-22T10:05:33.061Z,64.30
2023-05-22T10:08:09.460Z,62.00
2023-05-22T10:10:38.441Z,62.50
2023-05-22T10:13:07.948Z,60.70
2023-05-22T10:15:39.403Z,61.50
2023-05-22T10:18:09.757Z,62.00
2023-05-22T10:20:38.866Z,62.60
2023-05-22T10:23:08.336Z,63.00
2023-05-22T10:25:38.954Z,62.20
2023-05-22T10:28:08.893Z,61.90
2023-05-22T10:30:47.657Z,61.30
2023-05-22T10:33:26.304Z,61.80
2023-05-22T10:35:58.722Z,61.00
2023-05-22T10:38:51.111Z,59.20
2023-05-22T10:41:20.306Z,59.20
2023-05-22T10:43:51.571Z,58.40
2023-05-22T10:46:20.768Z,59.20
2023-05-22T10:48:55.608Z,59.40
2023-05-22T10:51:24.806Z,59.50
2023-05-22T10:53:54.663Z,59.30
2023-05-22T10:56:25.261Z,59.80
2023-05-22T10:59:02.812Z,58.90
2023-05-22T11:01:36.587Z,57.80
2023-05-22T11:04:31.705Z,57.70
2023-05-22T11:07:36.636Z,58.00
2023-05-22T11:10:07.685Z,58.40
2023-05-22T11:12:37.452Z,59.00
2023-05-22T11:15:07.388Z,59.40
2023-05-22T11:17:41.686Z,59.30
2023-05-22T11:20:16.101Z,59.60
2023-05-22T11:22:46.839Z,59.80
2023-05-22T11:25:18.599Z,59.60
2023-05-22T11:27:48.930Z,58.40
2023-05-22T11:30:18.432Z,58.50
2023-05-22T11:32:48.331Z,58.50
2023-05-22T11:35:19.649Z,58.50
2023-05-22T11:37:49.068Z,58.20
2023-05-22T11:40:19.625Z,58.30
2023-05-22T11:42:48.376Z,58.50
2023-05-22T11:45:18.033Z,58.60
2023-05-22T11:47:46.841Z,59.20
2023-05-22T11:50:22.479Z,58.70
2023-05-22T11:52:59.918Z,57.00
2023-05-22T11:55:28.292Z,56.00
2023-05-22T11:57:57.489Z,57.20
2023-05-22T12:00:26.525Z,57.40
2023-05-22T12:02:56.217Z,57.10
2023-05-22T12:05:24.734Z,56.60
2023-05-22T12:07:53.244Z,55.30
2023-05-22T12:10:23.450Z,55.30
2023-05-22T12:12:54.330Z,55.50
2023-05-22T12:15:22.742Z,55.30
2023-05-22T12:17:51.285Z,55.20
2023-05-22T12:20:19.823Z,55.70
2023-05-22T12:22:48.123Z,54.90
2023-05-22T12:25:17.935Z,54.40
2023-05-22T12:27:48.550Z,53.90
2023-05-22T12:30:17.756Z,54.40
2023-05-22T12:32:50.147Z,54.40
2023-05-22T12:35:19.480Z,55.10
2023-05-22T12:37:51.357Z,55.60
2023-05-22T12:40:19.885Z,55.30
2023-05-22T12:42:50.256Z,55.70
2023-05-22T12:45:19.137Z,54.10
2023-05-22T12:47:47.558Z,54.40
2023-05-22T12:50:16.203Z,54.60
2023-05-22T12:52:44.662Z,54.50
2023-05-22T12:55:13.105Z,53.90
2023-05-22T12:57:41.485Z,53.60
2023-05-22T13:00:12.844Z,53.40
2023-05-22T13:02:41.422Z,53.80
2023-05-22T13:05:10.343Z,53.80
2023-05-22T13:07:39.174Z,53.70
2023-05-22T13:10:08.914Z,53.60
2023-05-22T13:12:37.392Z,52.90
2023-05-22T13:15:06.752Z,53.20
2023-05-22T13:17:36.761Z,53.20
2023-05-22T13:20:05.546Z,53.10
2023-05-22T13:22:33.838Z,53.10
2023-05-22T13:25:02.285Z,53.20
2023-05-22T13:27:33.361Z,53.20
2023-05-22T13:30:02.265Z,53.40
2023-05-22T13:32:30.716Z,53.20
2023-05-22T13:35:00.580Z,53.50
2023-05-22T13:37:29.066Z,53.70
2023-05-22T13:39:59.628Z,52.80
2023-05-22T13:42:28.050Z,53.10
2023-05-22T13:44:56.661Z,52.90
2023-05-22T13:47:26.292Z,53.10
2023-05-22T13:49:54.967Z,53.10
2023-05-22T13:52:24.984Z,52.60
2023-05-22T13:54:53.458Z,52.20
2023-05-22T13:57:21.965Z,52.60
2023-05-22T13:59:50.729Z,52.80
2023-05-22T14:02:20.733Z,52.90
2023-05-22T14:04:49.915Z,52.80
2023-05-22T14:07:18.308Z,52.90
2023-05-22T14:09:48.294Z,53.10
2023-05-22T14:27:44.760Z,51.80
2023-05-22T14:30:15.393Z,51.30
2023-05-22T14:32:44.433Z,50.70
2023-05-22T14:35:14.072Z,48.80
2023-05-22T14:37:42.421Z,48.70
2023-05-22T14:54:59.093Z,50.20
2023-05-22T14:57:29.498Z,50.20
2023-05-22T14:59:58.173Z,50.40
2023-05-22T15:02:26.605Z,50.70
2023-05-22T15:04:55.247Z,50.00
2023-05-22T15:07:29.283Z,50.20
2023-05-22T15:10:06.302Z,50.00
2023-05-22T15:12:34.861Z,49.50
2023-05-22T15:15:03.381Z,49.80
2023-05-22T15:17:31.848Z,49.00
2023-05-22T15:20:00.508Z,49.50
2023-05-22T15:22:29.005Z,50.00
2023-05-22T15:25:11.630Z,49.90
2023-05-22T15:27:41.107Z,49.80
2023-05-22T15:30:12.155Z,49.70
2023-05-22T15:32:40.829Z,48.60
2023-05-22T15:35:10.401Z,49.30
2023-05-22T15:37:38.900Z,48.90
2023-05-22T15:40:16.260Z,48.10
2023-05-22T15:42:44.719Z,48.20
2023-05-22T15:45:13.478Z,48.50
2023-05-22T15:47:42.997Z,48.60
2023-05-22T15:50:12.183Z,48.80
2023-05-22T15:52:40.659Z,48.50
2023-05-22T15:55:10.878Z,48.70
2023-05-22T15:57:39.359Z,48.90
2023-05-22T16:00:08.964Z,49.10
2023-05-22T16:02:37.473Z,48.50
2023-05-22T16:05:06.509Z,48.50
2023-05-22T16:07:34.790Z,48.00
2023-05-22T16:10:03.555Z,48.40
2023-05-22T16:12:33.255Z,47.60
2023-05-22T16:15:02.810Z,47.80
2023-05-22T16:17:32.432Z,48.30
2023-05-22T16:20:00.834Z,48.50
2023-05-22T16:22:36.645Z,48.80
2023-05-22T16:25:16.580Z,49.20
2023-05-22T16:27:46.498Z,49.60
2023-05-22T16:30:16.809Z,49.90
2023-05-22T16:32:46.262Z,49.80
2023-05-22T16:35:14.953Z,49.80
2023-05-22T16:37:43.561Z,50.10
2023-05-22T16:40:12.877Z,50.30
2023-05-22T16:42:41.483Z,50.50
2023-05-22T16:45:11.532Z,50.30
2023-05-22T16:47:40.477Z,50.60
2023-05-22T16:50:10.147Z,50.90
2023-05-22T16:52:38.675Z,51.40
2023-05-22T16:55:08.164Z,51.30
2023-05-22T16:57:36.572Z,51.40
2023-05-22T17:00:06.865Z,51.80
2023-05-22T17:02:36.887Z,51.80
2023-05-22T17:05:05.963Z,51.80
2023-05-22T17:07:34.496Z,52.00
2023-05-22T17:10:02.867Z,52.00
2023-05-22T17:12:31.402Z,52.40
2023-05-22T17:15:00.053Z,52.00
2023-05-22T17:17:28.512Z,52.00
2023-05-22T17:19:58.673Z,52.10
2023-05-22T17:22:27.042Z,52.60
2023-05-22T17:24:55.817Z,52.90
2023-05-22T17:27:35.359Z,52.90
2023-05-22T17:30:06.143Z,52.90
2023-05-22T17:32:34.867Z,53.00
2023-05-22T17:35:06.615Z,53.10
2023-05-22T17:37:35.424Z,53.10
2023-05-22T17:40:04.107Z,53.10
2023-05-22T17:42:32.604Z,53.00
2023-05-22T17:45:01.071Z,53.10
2023-05-22T17:47:29.536Z,53.20
2023-05-22T17:49:58.198Z,53.20
2023-05-22T17:52:28.144Z,53.30
2023-05-22T17:54:57.151Z,53.30
2023-05-22T17:57:26.094Z,53.60
2023-05-22T17:59:54.538Z,53.60
2023-05-22T18:02:23.029Z,53.80
2023-05-22T18:04:51.625Z,53.90
2023-05-22T18:07:20.191Z,53.80
2023-05-22T18:09:50.072Z,53.80
2023-05-22T18:12:31.138Z,53.90
2023-05-22T18:15:00.395Z,54.00
2023-05-22T18:17:29.000Z,54.40
2023-05-22T18:19:57.515Z,54.10
2023-05-22T18:22:26.609Z,54.40
2023-05-22T18:24:56.493Z,54.40
2023-05-22T18:27:25.105Z,54.40
2023-05-22T18:29:55.464Z,54.60
2023-05-22T18:32:24.668Z,54.70
2023-05-22T18:34:53.426Z,54.70
2023-05-22T18:37:21.909Z,54.80
2023-05-22T18:39:50.370Z,54.90
2023-05-22T18:42:20.221Z,55.00
2023-05-22T18:44:49.556Z,55.30
2023-05-22T18:47:18.021Z,55.60
2023-05-22T18:49:46.434Z,55.70
2023-05-22T18:52:15.099Z,55.80
2023-05-22T18:54:43.606Z,55.70
2023-05-22T18:57:12.004Z,55.90
2023-05-22T18:59:43.544Z,56.00
2023-05-22T19:02:12.037Z,56.20
2023-05-22T19:04:40.841Z,56.10
2023-05-22T19:07:16.919Z,56.30
2023-05-22T19:09:45.551Z,56.40
2023-05-22T19:12:24.690Z,56.60
2023-05-22T19:14:54.490Z,56.60
2023-05-22T19:17:22.846Z,56.70
2023-05-22T19:19:51.260Z,56.70
2023-05-22T19:22:19.662Z,56.80
2023-05-22T19:24:48.089Z,56.80
2023-05-22T19:27:16.608Z,56.90
2023-05-22T19:29:45.192Z,56.90
2023-05-22T19:32:15.416Z,57.00
2023-05-22T19:34:43.799Z,56.90
2023-05-22T19:37:12.067Z,57.00
2023-05-22T19:39:40.381Z,57.20
2023-05-22T19:42:10.795Z,57.20
2023-05-22T19:44:39.082Z,57.50
2023-05-22T19:47:07.525Z,57.60
2023-05-22T19:49:37.486Z,57.60
2023-05-22T19:52:06.759Z,57.80
2023-05-22T19:54:35.729Z,57.90
2023-05-22T19:57:04.318Z,58.80
2023-05-22T19:59:35.830Z,58.50
2023-05-22T20:02:05.017Z,58.60
2023-05-22T20:04:34.467Z,58.60
2023-05-22T20:07:05.305Z,58.80
2023-05-22T20:09:33.730Z,59.10
2023-05-22T20:12:02.141Z,59.30
2023-05-22T20:14:30.505Z,59.50
2023-05-22T20:16:59.600Z,59.40
2023-05-22T20:19:30.750Z,59.70
2023-05-22T20:21:59.315Z,60.10
2023-05-22T20:24:29.709Z,61.90
2023-05-22T20:26:58.538Z,60.70
2023-05-22T20:29:26.846Z,60.70
2023-05-22T20:31:56.040Z,60.70
2023-05-22T20:34:26.649Z,60.80
2023-05-22T20:36:55.264Z,60.90
2023-05-22T20:39:23.576Z,62.50
2023-05-22T20:41:54.453Z,61.80
2023-05-22T20:44:24.735Z,61.80
2023-05-22T20:46:53.416Z,61.90
2023-05-22T20:49:21.907Z,62.00
2023-05-22T20:51:50.968Z,62.00
2023-05-22T20:54:19.438Z,62.10
2023-05-22T20:56:47.853Z,62.20
2023-05-22T20:59:17.634Z,62.30
2023-05-22T21:01:47.440Z,62.50
2023-05-22T21:04:15.719Z,62.60
2023-05-22T21:06:44.073Z,63.00
2023-05-22T21:09:12.321Z,63.10
2023-05-22T21:11:40.697Z,63.20
2023-05-22T21:14:09.317Z,64.20
2023-05-22T21:16:40.273Z,63.50
2023-05-22T21:19:08.762Z,63.60
2023-05-22T21:21:41.601Z,63.70
2023-05-22T21:24:10.503Z,63.80
2023-05-22T21:26:38.917Z,64.10
2023-05-22T21:29:07.714Z,64.10
2023-05-22T21:31:36.200Z,64.50
2023-05-22T21:34:06.022Z,64.70
2023-05-22T21:36:34.337Z,64.70
2023-05-22T21:39:03.591Z,65.20
2023-05-22T21:41:32.045Z,65.80
2023-05-22T21:44:00.674Z,65.80
2023-05-22T21:46:29.082Z,66.30
2023-05-22T21:48:57.565Z,66.80
2023-05-22T21:51:27.334Z,67.90
2023-05-22T21:53:55.699Z,67.90
2023-05-22T21:56:24.196Z,67.70
2023-05-22T21:58:52.578Z,68.90
2023-05-22T22:01:20.941Z,69.10
2023-05-22T22:03:49.312Z,69.00
2023-05-22T22:06:17.769Z,69.50
2023-05-22T22:08:47.624Z,69.90
2023-05-22T22:11:16.003Z,70.20
2023-05-22T22:13:44.551Z,70.00
2023-05-22T22:16:12.960Z,70.00
2023-05-22T22:18:41.405Z,70.00
2023-05-22T22:21:10.500Z,70.20
2023-05-22T22:23:38.883Z,70.50
2023-05-22T22:26:08.639Z,70.50
2023-05-22T22:28:37.183Z,71.20
2023-05-22T22:31:05.709Z,71.10
2023-05-22T22:33:34.082Z,71.30
2023-05-22T22:36:02.552Z,71.20
2023-05-22T22:38:32.994Z,71.50
2023-05-22T22:41:01.887Z,71.60
2023-05-22T22:43:31.985Z,71.70
2023-05-22T22:46:00.240Z,71.60
2023-05-22T22:48:28.870Z,71.60
2023-05-22T22:50:57.958Z,72.50
2023-05-22T22:53:26.466Z,72.70
2023-05-22T22:55:57.572Z,72.70
2023-05-22T22:58:26.538Z,72.70
2023-05-22T23:00:56.312Z,73.10
2023-05-22T23:03:24.805Z,73.00
2023-05-22T23:05:53.105Z,73.00
2023-05-22T23:08:21.406Z,73.10
2023-05-22T23:10:49.760Z,73.10
2023-05-22T23:13:18.022Z,73.40
2023-05-22T23:15:46.590Z,73.50
2023-05-22T23:18:16.475Z,73.90
2023-05-22T23:20:44.921Z,74.10
2023-05-22T23:23:13.302Z,74.10
2023-05-22T23:25:41.942Z,74.10
2023-05-22T23:28:10.390Z,74.10
2023-05-22T23:30:38.735Z,74.20
2023-05-22T23:33:07.752Z,74.40
2023-05-22T23:35:37.911Z,74.70
2023-05-22T23:38:06.409Z,75.80
2023-05-22T23:40:34.771Z,75.20
2023-05-22T23:43:03.275Z,75.20
2023-05-22T23:45:31.544Z,75.60
2023-05-22T23:48:00.138Z,75.70
2023-05-22T23:50:28.573Z,76.00
2023-05-22T23:52:58.237Z,76.10
2023-05-22T23:55:26.651Z,76.30
2023-05-22T23:57:54.918Z,76.30
